createdAt,value
2023-04-01T00:01:32.172Z,9.12
2023-04-01T00:04:03.137Z,8.93
2023-04-01T00:06:32.725Z,9.07
2023-04-01T00:09:00.753Z,8.98
2023-04-01T00:11:29.349Z,8.97
2023-04-01T00:13:57.343Z,8.94
2023-04-01T00:16:25.863Z,8.99
2023-04-01T00:18:54.160Z,8.98
2023-04-01T00:21:22.940Z,9.02
2023-04-01T00:23:52.589Z,8.99
2023-04-01T00:26:22.093Z,8.88
2023-04-01T00:28:50.405Z,8.98
2023-04-01T00:31:18.493Z,8.87
2023-04-01T00:33:46.846Z,8.93
2023-04-01T00:36:15.535Z,9.08
2023-04-01T00:38:43.934Z,8.84
2023-04-01T00:41:15.394Z,8.90
2023-04-01T00:43:43.522Z,8.85
2023-04-01T00:46:11.467Z,8.95
2023-04-01T00:48:40.947Z,8.98
2023-04-01T00:51:09.649Z,8.99
2023-04-01T00:53:40.284Z,8.89
2023-04-01T00:56:09.454Z,8.86
2023-04-01T00:58:40.836Z,8.90
2023-04-01T01:01:08.829Z,8.95
2023-04-01T01:03:37.182Z,8.92
2023-04-01T01:06:13.583Z,8.93
2023-04-01T01:08:54.970Z,8.89
2023-04-01T01:11:27.962Z,8.87
2023-04-01T01:14:00.420Z,8.96
2023-04-01T01:16:29.325Z,8.78
2023-04-01T01:19:00.107Z,8.81
2023-04-01T01:21:35.516Z,8.91
2023-04-01T01:24:35.152Z,8.90
2023-04-01T01:27:06.666Z,8.89
2023-04-01T01:30:00.569Z,8.80
2023-04-01T01:32:37.930Z,8.85
2023-04-01T01:35:16.648Z,8.89
2023-04-01T01:37:44.587Z,8.84
2023-04-01T01:40:13.189Z,8.94
2023-04-01T01:42:42.750Z,8.90
2023-04-01T01:45:11.315Z,8.75
2023-04-01T01:47:39.615Z,8.89
2023-04-01T01:50:09.140Z,8.84
2023-04-01T01:52:38.469Z,8.74
2023-04-01T01:55:25.872Z,8.78
2023-04-01T01:57:53.871Z,8.84
2023-04-01T02:00:21.958Z,8.76
2023-04-01T02:02:50.126Z,8.73
2023-04-01T02:05:19.525Z,8.67
2023-04-01T02:07:50.732Z,8.74
2023-04-01T02:10:19.047Z,8.74
2023-04-01T02:12:47.066Z,8.76
2023-04-01T02:15:15.440Z,8.76
2023-04-01T02:17:45.781Z,8.82
2023-04-01T02:20:15.925Z,8.79
2023-04-01T02:22:45.467Z,8.94
2023-04-01T02:25:15.620Z,8.94
2023-04-01T02:27:45.268Z,9.00
2023-04-01T02:30:14.079Z,9.01
2023-04-01T02:32:42.120Z,8.84
2023-04-01T02:35:11.549Z,8.87
2023-04-01T02:37:40.492Z,8.92
2023-04-01T02:40:09.619Z,8.84
2023-04-01T02:42:39.222Z,8.76
2023-04-01T02:45:08.331Z,8.81
2023-04-01T02:47:36.295Z,8.84
2023-04-01T02:50:04.709Z,8.80
2023-04-01T02:52:32.757Z,8.75
2023-04-01T02:55:00.954Z,8.76
2023-04-01T02:57:29.336Z,8.71
2023-04-01T02:59:58.715Z,8.80
2023-04-01T03:02:26.732Z,8.78
2023-04-01T03:04:55.040Z,8.76
2023-04-01T03:07:23.013Z,8.74
2023-04-01T03:09:51.627Z,8.69
2023-04-01T03:12:19.971Z,8.70
2023-04-01T03:14:47.936Z,8.74
2023-04-01T03:17:17.383Z,8.73
2023-04-01T03:19:45.728Z,8.73
2023-04-01T03:22:13.645Z,8.86
2023-04-01T03:24:41.643Z,8.63
2023-04-01T03:27:09.851Z,8.64
2023-04-01T03:29:37.830Z,8.63
2023-04-01T03:32:05.758Z,8.68
2023-04-01T03:34:35.684Z,8.68
2023-04-01T03:37:03.631Z,8.64
2023-04-01T03:39:31.652Z,8.73
2023-04-01T03:41:59.521Z,8.70
2023-04-01T03:44:27.417Z,8.71
2023-04-01T03:46:55.328Z,8.77
2023-04-01T03:49:23.340Z,8.72
2023-04-01T03:51:52.662Z,8.60
2023-04-01T03:54:21.118Z,8.67
2023-04-01T03:56:49.376Z,8.72
2023-04-01T03:59:17.437Z,8.68
2023-04-01T04:01:45.496Z,8.68
2023-04-01T04:04:14.177Z,8.70
2023-04-01T04:06:42.173Z,8.69
2023-04-01T04:09:11.495Z,8.68
2023-04-01T04:11:39.437Z,8.57
2023-04-01T04:14:07.388Z,8.70
2023-04-01T04:16:37.515Z,8.85
2023-04-01T04:19:05.503Z,8.71
2023-04-01T04:21:33.747Z,8.75
2023-04-01T04:24:01.776Z,8.68
2023-04-01T04:26:31.368Z,8.75
2023-04-01T04:28:59.584Z,8.68
2023-04-01T04:31:27.783Z,8.65
2023-04-01T04:33:55.937Z,8.73
2023-04-01T04:36:24.027Z,8.73
2023-04-01T04:38:51.946Z,8.74
2023-04-01T04:41:20.152Z,8.84
2023-04-01T04:43:53.064Z,8.70
2023-04-01T04:46:21.072Z,8.73
2023-04-01T04:48:49.184Z,8.72
2023-04-01T04:51:17.671Z,8.73
2023-04-01T04:53:45.590Z,8.76
2023-04-01T04:56:13.585Z,8.75
2023-04-01T04:58:41.803Z,8.75
2023-04-01T05:01:11.968Z,8.84
2023-04-01T05:03:40.050Z,8.78
2023-04-01T05:06:08.803Z,8.89
2023-04-01T05:08:36.783Z,8.79
2023-04-01T05:11:04.935Z,8.85
2023-04-01T05:13:33.181Z,8.78
2023-04-01T05:16:01.068Z,8.86
2023-04-01T05:18:30.370Z,8.88
2023-04-01T05:20:58.237Z,8.89
2023-04-01T05:23:26.196Z,8.84
2023-04-01T05:25:54.371Z,8.89
2023-04-01T05:28:22.381Z,8.99
2023-04-01T05:30:50.295Z,8.94
2023-04-01T05:33:18.584Z,8.83
2023-04-01T05:35:47.932Z,8.84
2023-04-01T05:38:15.825Z,8.92
2023-04-01T05:40:43.697Z,9.00
2023-04-01T05:43:11.906Z,8.99
2023-04-01T05:45:40.011Z,8.98
2023-04-01T05:48:08.079Z,8.96
2023-04-01T05:50:36.292Z,8.87
2023-04-01T05:53:05.823Z,8.99
2023-04-01T05:55:33.996Z,8.91
2023-04-01T05:58:02.472Z,9.07
2023-04-01T06:00:30.361Z,9.21
2023-04-01T06:03:00.703Z,9.04
2023-04-01T06:05:30.394Z,9.10
2023-04-01T06:08:00.749Z,9.23
2023-04-01T06:10:39.298Z,9.11
2023-04-01T06:13:08.315Z,9.16
2023-04-01T06:15:38.666Z,9.12
2023-04-01T06:18:37.046Z,9.34
2023-04-01T06:21:07.872Z,9.28
2023-04-01T06:23:54.598Z,9.27
2023-04-01T06:26:27.343Z,9.24
2023-04-01T06:29:11.511Z,9.22
2023-04-01T06:31:49.140Z,9.28
2023-04-01T06:34:33.155Z,9.22
2023-04-01T06:37:17.596Z,9.14
2023-04-01T06:39:53.328Z,9.25
2023-04-01T06:42:35.102Z,9.24
2023-04-01T06:45:09.314Z,9.29
2023-04-01T06:47:45.545Z,9.25
2023-04-01T06:50:17.454Z,9.36
2023-04-01T06:52:49.724Z,9.22
2023-04-01T06:55:29.272Z,9.33
2023-04-01T06:57:59.415Z,9.21
2023-04-01T07:00:30.191Z,9.30
2023-04-01T07:03:06.635Z,9.36
2023-04-01T07:05:35.009Z,9.30
2023-04-01T07:08:04.853Z,9.22
2023-04-01T07:10:37.152Z,9.26
2023-04-01T07:13:07.010Z,9.32
2023-04-01T07:15:37.517Z,9.39
2023-04-01T07:18:07.603Z,9.38
2023-04-01T07:20:35.583Z,9.31
2023-04-01T07:23:05.018Z,9.32
2023-04-01T07:25:33.976Z,9.34
2023-04-01T07:28:03.741Z,9.33
2023-04-01T07:30:48.645Z,9.28
2023-04-01T07:33:19.076Z,9.33
2023-04-01T07:35:48.529Z,9.35
2023-04-01T07:38:22.322Z,9.36
2023-04-01T07:40:51.500Z,9.35
2023-04-01T07:43:37.006Z,9.50
2023-04-01T07:46:10.625Z,9.62
2023-04-01T07:48:41.733Z,9.63
2023-04-01T07:51:11.190Z,9.67
2023-04-01T07:53:40.255Z,9.55
2023-04-01T07:56:10.759Z,9.66
2023-04-01T07:58:46.131Z,9.64
2023-04-01T08:01:17.932Z,9.58
2023-04-01T08:03:54.982Z,9.64
2023-04-01T08:06:26.660Z,9.51
2023-04-01T08:09:01.780Z,9.60
2023-04-01T08:11:46.001Z,9.52
2023-04-01T08:14:16.481Z,9.63
2023-04-01T08:16:48.594Z,9.51
2023-04-01T08:19:21.838Z,9.59
2023-04-01T08:21:51.898Z,9.56
2023-04-01T08:24:23.006Z,9.70
2023-04-01T08:26:52.334Z,9.78
2023-04-01T08:29:21.976Z,9.74
2023-04-01T08:31:53.681Z,9.56
2023-04-01T08:34:23.346Z,9.51
2023-04-01T08:36:54.878Z,9.58
2023-04-01T08:39:28.076Z,9.57
2023-04-01T08:42:35.394Z,9.72
2023-04-01T08:45:20.872Z,9.77
2023-04-01T08:48:13.870Z,9.57
2023-04-01T08:51:13.804Z,9.58
2023-04-01T08:53:50.143Z,9.60
2023-04-01T08:56:20.204Z,9.50
2023-04-01T08:59:06.724Z,9.69
2023-04-01T09:02:01.998Z,9.62
2023-04-01T09:04:41.206Z,9.68
2023-04-01T09:07:18.035Z,9.59
2023-04-01T09:10:13.392Z,9.74
2023-04-01T09:12:53.262Z,9.59
2023-04-01T09:15:50.183Z,9.52
2023-04-01T09:18:33.275Z,9.63
2023-04-01T09:21:20.948Z,9.65
2023-04-01T09:24:22.195Z,9.85
2023-04-01T09:27:01.120Z,9.82
2023-04-01T09:29:37.644Z,9.83
2023-04-01T09:32:21.149Z,9.85
2023-04-01T09:34:56.680Z,9.73
2023-04-01T09:37:33.674Z,9.55
2023-04-01T09:40:20.528Z,9.62
2023-04-01T09:42:58.419Z,9.78
2023-04-01T09:45:37.872Z,9.78
2023-04-01T09:48:19.634Z,9.86
2023-04-01T09:50:54.704Z,9.84
2023-04-01T09:53:31.353Z,9.93
2023-04-01T09:56:33.119Z,9.85
2023-04-01T09:59:35.192Z,9.99
2023-04-01T10:02:45.742Z,9.99
2023-04-01T10:05:55.712Z,9.83
2023-04-01T10:08:58.981Z,9.95
2023-04-01T10:11:55.907Z,9.96
2023-04-01T10:15:02.716Z,10.09
2023-04-01T10:17:50.270Z,10.02
2023-04-01T10:21:00.680Z,10.14
2023-04-01T10:23:59.131Z,10.09
2023-04-01T10:26:34.762Z,10.08
2023-04-01T10:29:24.514Z,10.02
2023-04-01T10:32:16.113Z,10.07
2023-04-01T10:35:22.733Z,10.16
2023-04-01T10:38:28.788Z,10.12
2023-04-01T10:41:13.632Z,9.89
2023-04-01T10:44:13.825Z,10.03
2023-04-01T10:47:11.947Z,9.84
2023-04-01T10:50:07.254Z,9.97
2023-04-01T10:52:58.391Z,9.80
2023-04-01T10:56:01.798Z,9.85
2023-04-01T10:58:58.482Z,9.99
2023-04-01T11:02:09.987Z,9.93
2023-04-01T11:05:26.777Z,10.12
2023-04-01T11:08:25.592Z,9.85
2023-04-01T11:11:10.378Z,10.06
2023-04-01T11:14:20.753Z,10.17
2023-04-01T11:17:11.925Z,10.12
2023-04-01T11:20:12.700Z,10.19
2023-04-01T11:23:01.235Z,9.99
2023-04-01T11:25:42.118Z,10.07
2023-04-01T11:28:27.910Z,10.20
2023-04-01T11:31:02.425Z,10.16
2023-04-01T11:33:32.322Z,10.40
2023-04-01T11:36:08.902Z,10.29
2023-04-01T11:39:00.816Z,10.39
2023-04-01T11:41:40.195Z,10.35
2023-04-01T11:44:18.411Z,10.35
2023-04-01T11:46:56.965Z,10.43
2023-04-01T11:49:35.810Z,10.38
2023-04-01T11:52:12.954Z,10.43
2023-04-01T11:54:53.971Z,10.26
2023-04-01T11:57:37.690Z,10.36
2023-04-01T12:00:22.555Z,10.38
2023-04-01T12:02:56.613Z,10.28
2023-04-01T12:05:41.330Z,10.32
2023-04-01T12:08:19.640Z,10.41
2023-04-01T12:10:49.455Z,10.27
2023-04-01T12:13:23.996Z,10.41
2023-04-01T12:16:27.743Z,10.50
2023-04-01T12:18:56.896Z,10.64
2023-04-01T12:21:27.769Z,10.56
2023-04-01T12:24:12.711Z,10.39
2023-04-01T12:27:10.086Z,10.56
2023-04-01T12:30:04.584Z,10.61
2023-04-01T12:32:36.342Z,10.62
2023-04-01T12:35:21.388Z,10.48
2023-04-01T12:38:01.899Z,10.19
2023-04-01T12:40:53.838Z,10.29
2023-04-01T12:43:52.556Z,10.19
2023-04-01T12:46:23.034Z,10.33
2023-04-01T12:49:10.235Z,10.41
2023-04-01T12:51:47.839Z,10.23
2023-04-01T12:54:48.183Z,10.11
2023-04-01T12:57:25.370Z,10.24
2023-04-01T13:00:13.587Z,10.16
2023-04-01T13:02:53.364Z,10.29
2023-04-01T13:05:42.263Z,10.35
2023-04-01T13:08:20.189Z,10.41
2023-04-01T13:11:00.316Z,10.37
2023-04-01T13:13:49.276Z,10.48
2023-04-01T13:16:18.339Z,10.50
2023-04-01T13:18:56.332Z,10.47
2023-04-01T13:21:28.694Z,10.53
2023-04-01T13:23:59.136Z,10.65
2023-04-01T13:26:30.120Z,10.67
2023-04-01T13:29:01.974Z,10.58
2023-04-01T13:31:39.918Z,10.60
2023-04-01T13:34:22.726Z,10.72
2023-04-01T13:37:20.496Z,10.35
2023-04-01T13:40:02.770Z,10.47
2023-04-01T13:42:32.597Z,10.35
2023-04-01T13:45:04.756Z,10.32
2023-04-01T13:48:08.676Z,10.32
2023-04-01T13:50:57.177Z,9.99
2023-04-01T13:53:43.272Z,10.21
2023-04-01T13:56:18.066Z,10.30
2023-04-01T13:58:57.787Z,10.30
2023-04-01T14:01:32.415Z,10.39
2023-04-01T14:04:32.989Z,10.53
2023-04-01T14:07:09.413Z,10.49
2023-04-01T14:09:47.277Z,10.27
2023-04-01T14:12:21.432Z,10.45
2023-04-01T14:15:11.666Z,10.42
2023-04-01T14:17:51.935Z,10.47
